sensor_id;sensor_type;location;lat;lon;timestamp;P1;durP1;ratioP1;P2;durP2;ratioP2
16294;SDS011;8255;49.560;8.244;2023-03-13T00:01:12;8.77;;;2.85;;
16294;SDS011;8255;49.560;8.244;2023-03-13T00:03:39;4.85;;;2.22;;
16294;SDS011;8255;49.560;8.244;2023-03-13T00:06:06;6.72;;;2.20;;
16294;SDS011;8255;49.560;8.244;2023-03-13T00:08:33;5.50;;;2.00;;
16294;SDS011;8255;49.560;8.244;2023-03-13T00:11:01;8.38;;;2.50;;
16294;SDS011;8255;49.560;8.244;2023-03-13T00:13:27;10.20;;;2.42;;
16294;SDS011;8255;49.560;8.244;2023-03-13T00:15:58;5.55;;;2.25;;
16294;SDS011;8255;49.560;8.244;2023-03-13T00:18:24;10.75;;;2.50;;
16294;SDS011;8255;49.560;8.244;2023-03-13T00:20:56;7.07;;;2.25;;
16294;SDS011;8255;49.560;8.244;2023-03-13T00:23:23;8.60;;;2.55;;
16294;SDS011;8255;49.560;8.244;2023-03-13T00:25:54;7.18;;;2.45;;
16294;SDS011;8255;49.560;8.244;2023-03-13T00:28:21;6.70;;;2.35;;
16294;SDS011;8255;49.560;8.244;2023-03-13T00:30:47;7.28;;;2.13;;
16294;SDS011;8255;49.560;8.244;2023-03-13T00:33:13;6.63;;;2.60;;
16294;SDS011;8255;49.560;8.244;2023-03-13T00:35:40;4.90;;;2.00;;
16294;SDS011;8255;49.560;8.244;2023-03-13T00:38:06;3.80;;;2.05;;
16294;SDS011;8255;49.560;8.244;2023-03-13T00:40:34;6.82;;;2.13;;
16294;SDS011;8255;49.560;8.244;2023-03-13T00:43:00;8.93;;;2.55;;
16294;SDS011;8255;49.560;8.244;2023-03-13T00:45:27;6.15;;;2.05;;
16294;SDS011;8255;49.560;8.244;2023-03-13T00:47:53;5.45;;;2.10;;
16294;SDS011;8255;49.560;8.244;2023-03-13T00:50:19;7.80;;;2.40;;
16294;SDS011;8255;49.560;8.244;2023-03-13T00:52:46;7.65;;;2.20;;
16294;SDS011;8255;49.560;8.244;2023-03-13T00:55:12;3.40;;;1.73;;
16294;SDS011;8255;49.560;8.244;2023-03-13T00:57:40;5.63;;;2.08;;
16294;SDS011;8255;49.560;8.244;2023-03-13T01:00:07;4.28;;;1.98;;
16294;SDS011;8255;49.560;8.244;2023-03-13T01:02:34;4.78;;;1.90;;
16294;SDS011;8255;49.560;8.244;2023-03-13T01:05:06;6.38;;;2.00;;
16294;SDS011;8255;49.560;8.244;2023-03-13T01:07:33;8.55;;;1.98;;
16294;SDS011;8255;49.560;8.244;2023-03-13T01:10:00;6.70;;;2.17;;
16294;SDS011;8255;49.560;8.244;2023-03-13T01:12:26;8.88;;;2.20;;
16294;SDS011;8255;49.560;8.244;2023-03-13T01:14:54;4.40;;;1.80;;
16294;SDS011;8255;49.560;8.244;2023-03-13T01:17:20;5.53;;;2.22;;
16294;SDS011;8255;49.560;8.244;2023-03-13T01:19:47;7.40;;;2.17;;
16294;SDS011;8255;49.560;8.244;2023-03-13T01:22:14;4.95;;;1.83;;
16294;SDS011;8255;49.560;8.244;2023-03-13T01:24:40;7.65;;;2.25;;
16294;SDS011;8255;49.560;8.244;2023-03-13T01:27:06;6.93;;;2.28;;
16294;SDS011;8255;49.560;8.244;2023-03-13T01:29:33;5.35;;;1.90;;
16294;SDS011;8255;49.560;8.244;2023-03-13T01:32:01;7.85;;;2.22;;
16294;SDS011;8255;49.560;8.244;2023-03-13T01:34:27;6.15;;;2.13;;
16294;SDS011;8255;49.560;8.244;2023-03-13T01:36:53;6.15;;;2.00;;
16294;SDS011;8255;49.560;8.244;2023-03-13T01:39:20;6.70;;;2.08;;
16294;SDS011;8255;49.560;8.244;2023-03-13T01:41:46;7.43;;;2.17;;
16294;SDS011;8255;49.560;8.244;2023-03-13T01:44:17;5.95;;;2.08;;
16294;SDS011;8255;49.560;8.244;2023-03-13T01:46:45;6.53;;;2.35;;
16294;SDS011;8255;49.560;8.244;2023-03-13T01:49:26;6.43;;;2.10;;
16294;SDS011;8255;49.560;8.244;2023-03-13T01:52:01;8.05;;;2.58;;
16294;SDS011;8255;49.560;8.244;2023-03-13T01:54:32;6.25;;;2.40;;
16294;SDS011;8255;49.560;8.244;2023-03-13T01:57:00;9.23;;;2.55;;
16294;SDS011;8255;49.560;8.244;2023-03-13T01:59:29;6.72;;;1.85;;
16294;SDS011;8255;49.560;8.244;2023-03-13T02:01:57;7.20;;;2.58;;
16294;SDS011;8255;49.560;8.244;2023-03-13T02:04:26;3.13;;;1.83;;
16294;SDS011;8255;49.560;8.244;2023-03-13T02:06:57;4.93;;;1.58;;
16294;SDS011;8255;49.560;8.244;2023-03-13T02:09:26;5.85;;;1.80;;
16294;SDS011;8255;49.560;8.244;2023-03-13T02:11:55;4.13;;;1.95;;
16294;SDS011;8255;49.560;8.244;2023-03-13T02:14:26;2.90;;;1.33;;
16294;SDS011;8255;49.560;8.244;2023-03-13T02:16:53;3.42;;;1.65;;
16294;SDS011;8255;49.560;8.244;2023-03-13T02:19:23;4.65;;;1.90;;
16294;SDS011;8255;49.560;8.244;2023-03-13T02:21:54;5.32;;;2.38;;
16294;SDS011;8255;49.560;8.244;2023-03-13T02:24:26;3.58;;;2.53;;
16294;SDS011;8255;49.560;8.244;2023-03-13T02:26:57;6.00;;;2.10;;
16294;SDS011;8255;49.560;8.244;2023-03-13T02:29:24;7.35;;;1.90;;
16294;SDS011;8255;49.560;8.244;2023-03-13T02:31:50;4.65;;;2.10;;
16294;SDS011;8255;49.560;8.244;2023-03-13T02:34:18;6.03;;;1.88;;
16294;SDS011;8255;49.560;8.244;2023-03-13T02:36:46;5.95;;;1.95;;
16294;SDS011;8255;49.560;8.244;2023-03-13T02:39:13;5.97;;;2.15;;
16294;SDS011;8255;49.560;8.244;2023-03-13T02:41:41;4.40;;;1.95;;
16294;SDS011;8255;49.560;8.244;2023-03-13T02:44:09;4.43;;;1.73;;
16294;SDS011;8255;49.560;8.244;2023-03-13T02:46:42;3.97;;;2.10;;
16294;SDS011;8255;49.560;8.244;2023-03-13T02:49:15;3.72;;;1.88;;
16294;SDS011;8255;49.560;8.244;2023-03-13T02:51:43;3.55;;;1.92;;
16294;SDS011;8255;49.560;8.244;2023-03-13T02:54:13;4.78;;;1.77;;
16294;SDS011;8255;49.560;8.244;2023-03-13T02:56:42;5.68;;;2.13;;
16294;SDS011;8255;49.560;8.244;2023-03-13T02:59:10;3.90;;;1.70;;
16294;SDS011;8255;49.560;8.244;2023-03-13T03:01:40;5.05;;;1.80;;
16294;SDS011;8255;49.560;8.244;2023-03-13T03:04:06;2.85;;;1.70;;
16294;SDS011;8255;49.560;8.244;2023-03-13T03:06:33;4.32;;;1.73;;
16294;SDS011;8255;49.560;8.244;2023-03-13T03:09:01;4.72;;;1.58;;
16294;SDS011;8255;49.560;8.244;2023-03-13T03:11:31;6.18;;;1.83;;
16294;SDS011;8255;49.560;8.244;2023-03-13T03:14:02;6.00;;;2.05;;
16294;SDS011;8255;49.560;8.244;2023-03-13T03:16:35;4.05;;;1.70;;
16294;SDS011;8255;49.560;8.244;2023-03-13T03:19:04;3.00;;;1.70;;
16294;SDS011;8255;49.560;8.244;2023-03-13T03:21:31;4.03;;;2.00;;
16294;SDS011;8255;49.560;8.244;2023-03-13T03:23:57;4.32;;;1.98;;
16294;SDS011;8255;49.560;8.244;2023-03-13T03:26:23;4.55;;;1.95;;
16294;SDS011;8255;49.560;8.244;2023-03-13T03:28:50;1.90;;;1.58;;
16294;SDS011;8255;49.560;8.244;2023-03-13T03:31:17;3.78;;;1.58;;
16294;SDS011;8255;49.560;8.244;2023-03-13T03:33:45;4.25;;;1.70;;
16294;SDS011;8255;49.560;8.244;2023-03-13T03:36:14;4.43;;;1.40;;
16294;SDS011;8255;49.560;8.244;2023-03-13T03:38:42;3.40;;;1.83;;
16294;SDS011;8255;49.560;8.244;2023-03-13T03:41:12;5.90;;;1.70;;
16294;SDS011;8255;49.560;8.244;2023-03-13T03:43:39;4.57;;;1.70;;
16294;SDS011;8255;49.560;8.244;2023-03-13T03:46:06;3.45;;;1.85;;
16294;SDS011;8255;49.560;8.244;2023-03-13T03:48:33;5.13;;;1.80;;
16294;SDS011;8255;49.560;8.244;2023-03-13T03:51:03;4.32;;;1.80;;
16294;SDS011;8255;49.560;8.244;2023-03-13T03:53:31;3.90;;;1.90;;
16294;SDS011;8255;49.560;8.244;2023-03-13T03:55:58;2.85;;;1.40;;
16294;SDS011;8255;49.560;8.244;2023-03-13T03:58:24;4.63;;;1.70;;
16294;SDS011;8255;49.560;8.244;2023-03-13T04:01:17;5.63;;;1.92;;
16294;SDS011;8255;49.560;8.244;2023-03-13T04:03:43;3.03;;;1.42;;
16294;SDS011;8255;49.560;8.244;2023-03-13T04:06:12;6.05;;;1.70;;
16294;SDS011;8255;49.560;8.244;2023-03-13T04:08:39;2.20;;;1.40;;
16294;SDS011;8255;49.560;8.244;2023-03-13T04:11:08;3.47;;;1.73;;
16294;SDS011;8255;49.560;8.244;2023-03-13T04:13:37;5.65;;;1.50;;
16294;SDS011;8255;49.560;8.244;2023-03-13T04:16:05;3.97;;;1.67;;
16294;SDS011;8255;49.560;8.244;2023-03-13T04:18:32;3.13;;;1.80;;
16294;SDS011;8255;49.560;8.244;2023-03-13T04:20:59;3.88;;;1.60;;
16294;SDS011;8255;49.560;8.244;2023-03-13T04:23:27;3.67;;;2.00;;
16294;SDS011;8255;49.560;8.244;2023-03-13T04:25:53;4.03;;;1.55;;
16294;SDS011;8255;49.560;8.244;2023-03-13T04:28:19;6.13;;;1.90;;
16294;SDS011;8255;49.560;8.244;2023-03-13T04:30:46;3.72;;;1.60;;
16294;SDS011;8255;49.560;8.244;2023-03-13T04:33:31;4.00;;;1.42;;
16294;SDS011;8255;49.560;8.244;2023-03-13T04:36:06;1.73;;;1.63;;
16294;SDS011;8255;49.560;8.244;2023-03-13T04:38:49;2.85;;;1.73;;
16294;SDS011;8255;49.560;8.244;2023-03-13T04:41:34;3.17;;;1.33;;
16294;SDS011;8255;49.560;8.244;2023-03-13T04:44:15;1.90;;;1.58;;
16294;SDS011;8255;49.560;8.244;2023-03-13T04:47:00;3.17;;;1.67;;
16294;SDS011;8255;49.560;8.244;2023-03-13T04:49:45;3.42;;;1.75;;
16294;SDS011;8255;49.560;8.244;2023-03-13T04:52:17;3.55;;;1.67;;
16294;SDS011;8255;49.560;8.244;2023-03-13T04:55:09;4.22;;;2.08;;
16294;SDS011;8255;49.560;8.244;2023-03-13T04:57:41;3.38;;;1.73;;
16294;SDS011;8255;49.560;8.244;2023-03-13T05:00:33;3.13;;;1.70;;
16294;SDS011;8255;49.560;8.244;2023-03-13T05:03:25;3.78;;;1.75;;
16294;SDS011;8255;49.560;8.244;2023-03-13T05:06:24;3.78;;;1.85;;
16294;SDS011;8255;49.560;8.244;2023-03-13T05:09:10;2.65;;;1.40;;
16294;SDS011;8255;49.560;8.244;2023-03-13T05:11:58;3.40;;;1.70;;
16294;SDS011;8255;49.560;8.244;2023-03-13T05:14:40;2.83;;;1.52;;
16294;SDS011;8255;49.560;8.244;2023-03-13T05:17:24;3.25;;;1.67;;
16294;SDS011;8255;49.560;8.244;2023-03-13T05:20:06;4.82;;;2.88;;
16294;SDS011;8255;49.560;8.244;2023-03-13T05:22:45;2.88;;;2.67;;
16294;SDS011;8255;49.560;8.244;2023-03-13T05:25:30;2.47;;;1.80;;
16294;SDS011;8255;49.560;8.244;2023-03-13T05:28:10;2.33;;;1.33;;
16294;SDS011;8255;49.560;8.244;2023-03-13T05:30:54;1.45;;;1.10;;
16294;SDS011;8255;49.560;8.244;2023-03-13T05:33:23;0.93;;;0.93;;
16294;SDS011;8255;49.560;8.244;2023-03-13T05:36:02;1.23;;;1.00;;
16294;SDS011;8255;49.560;8.244;2023-03-13T05:38:47;1.50;;;1.10;;
16294;SDS011;8255;49.560;8.244;2023-03-13T05:41:49;1.45;;;1.00;;
16294;SDS011;8255;49.560;8.244;2023-03-13T05:44:38;0.82;;;0.82;;
16294;SDS011;8255;49.560;8.244;2023-03-13T05:47:32;1.13;;;1.05;;
16294;SDS011;8255;49.560;8.244;2023-03-13T05:50:17;1.10;;;1.00;;
16294;SDS011;8255;49.560;8.244;2023-03-13T05:53:02;1.27;;;1.25;;
16294;SDS011;8255;49.560;8.244;2023-03-13T05:55:49;0.75;;;0.75;;
16294;SDS011;8255;49.560;8.244;2023-03-13T05:58:33;1.00;;;0.80;;
16294;SDS011;8255;49.560;8.244;2023-03-13T06:01:13;1.85;;;1.08;;
16294;SDS011;8255;49.560;8.244;2023-03-13T06:03:49;0.80;;;0.80;;
16294;SDS011;8255;49.560;8.244;2023-03-13T06:06:16;0.43;;;0.43;;
16294;SDS011;8255;49.560;8.244;2023-03-13T06:08:47;2.10;;;0.60;;
16294;SDS011;8255;49.560;8.244;2023-03-13T06:11:13;0.60;;;0.60;;
16294;SDS011;8255;49.560;8.244;2023-03-13T06:13:40;0.50;;;0.50;;
16294;SDS011;8255;49.560;8.244;2023-03-13T06:16:23;0.80;;;0.80;;
16294;SDS011;8255;49.560;8.244;2023-03-13T06:18:53;1.60;;;0.57;;
16294;SDS011;8255;49.560;8.244;2023-03-13T06:21:19;2.13;;;1.40;;
16294;SDS011;8255;49.560;8.244;2023-03-13T06:23:45;0.88;;;0.88;;
16294;SDS011;8255;49.560;8.244;2023-03-13T06:26:11;1.58;;;1.58;;
16294;SDS011;8255;49.560;8.244;2023-03-13T06:28:38;0.90;;;0.73;;
16294;SDS011;8255;49.560;8.244;2023-03-13T06:31:04;0.85;;;0.60;;
16294;SDS011;8255;49.560;8.244;2023-03-13T06:33:32;0.60;;;0.60;;
16294;SDS011;8255;49.560;8.244;2023-03-13T06:35:59;0.60;;;0.60;;
16294;SDS011;8255;49.560;8.244;2023-03-13T06:38:26;0.63;;;0.63;;
16294;SDS011;8255;49.560;8.244;2023-03-13T06:40:52;0.60;;;0.60;;
16294;SDS011;8255;49.560;8.244;2023-03-13T06:43:19;1.17;;;0.70;;
16294;SDS011;8255;49.560;8.244;2023-03-13T06:45:45;0.50;;;0.50;;
16294;SDS011;8255;49.560;8.244;2023-03-13T06:48:11;0.60;;;0.60;;
16294;SDS011;8255;49.560;8.244;2023-03-13T06:50:39;0.60;;;0.60;;
16294;SDS011;8255;49.560;8.244;2023-03-13T06:53:06;0.60;;;0.60;;
16294;SDS011;8255;49.560;8.244;2023-03-13T06:55:32;0.60;;;0.60;;
16294;SDS011;8255;49.560;8.244;2023-03-13T06:57:59;0.57;;;0.57;;
16294;SDS011;8255;49.560;8.244;2023-03-13T07:00:25;0.57;;;0.57;;
16294;SDS011;8255;49.560;8.244;2023-03-13T07:02:51;0.85;;;0.85;;
16294;SDS011;8255;49.560;8.244;2023-03-13T07:05:18;0.65;;;0.65;;
16294;SDS011;8255;49.560;8.244;2023-03-13T07:07:45;0.63;;;0.63;;
16294;SDS011;8255;49.560;8.244;2023-03-13T07:10:12;0.57;;;0.52;;
16294;SDS011;8255;49.560;8.244;2023-03-13T07:12:38;0.88;;;0.88;;
16294;SDS011;8255;49.560;8.244;2023-03-13T07:15:05;0.80;;;0.80;;
16294;SDS011;8255;49.560;8.244;2023-03-13T07:17:31;0.98;;;0.95;;
16294;SDS011;8255;49.560;8.244;2023-03-13T07:19:58;1.08;;;0.88;;
16294;SDS011;8255;49.560;8.244;2023-03-13T07:22:24;0.95;;;0.90;;
16294;SDS011;8255;49.560;8.244;2023-03-13T07:24:52;1.38;;;1.10;;
16294;SDS011;8255;49.560;8.244;2023-03-13T07:27:18;1.00;;;1.00;;
16294;SDS011;8255;49.560;8.244;2023-03-13T07:29:46;1.30;;;1.30;;
16294;SDS011;8255;49.560;8.244;2023-03-13T07:32:12;1.65;;;1.63;;
16294;SDS011;8255;49.560;8.244;2023-03-13T07:34:39;1.65;;;1.55;;
16294;SDS011;8255;49.560;8.244;2023-03-13T07:37:08;1.35;;;1.25;;
16294;SDS011;8255;49.560;8.244;2023-03-13T07:39:35;1.30;;;1.20;;
16294;SDS011;8255;49.560;8.244;2023-03-13T07:42:02;1.17;;;1.10;;
16294;SDS011;8255;49.560;8.244;2023-03-13T07:44:29;1.25;;;1.15;;
16294;SDS011;8255;49.560;8.244;2023-03-13T07:46:57;2.35;;;1.20;;
16294;SDS011;8255;49.560;8.244;2023-03-13T07:49:24;2.33;;;1.30;;
16294;SDS011;8255;49.560;8.244;2023-03-13T07:51:50;1.38;;;1.27;;
16294;SDS011;8255;49.560;8.244;2023-03-13T07:54:16;1.50;;;1.40;;
16294;SDS011;8255;49.560;8.244;2023-03-13T07:56:43;1.42;;;1.42;;
16294;SDS011;8255;49.560;8.244;2023-03-13T07:59:10;2.63;;;1.38;;
16294;SDS011;8255;49.560;8.244;2023-03-13T08:01:37;1.30;;;1.25;;
16294;SDS011;8255;49.560;8.244;2023-03-13T08:04:03;1.50;;;1.33;;
16294;SDS011;8255;49.560;8.244;2023-03-13T08:06:30;1.50;;;1.50;;
16294;SDS011;8255;49.560;8.244;2023-03-13T08:08:59;1.90;;;1.80;;
16294;SDS011;8255;49.560;8.244;2023-03-13T08:11:26;1.20;;;1.20;;
16294;SDS011;8255;49.560;8.244;2023-03-13T08:13:53;1.33;;;1.33;;
16294;SDS011;8255;49.560;8.244;2023-03-13T08:16:21;1.30;;;1.30;;
16294;SDS011;8255;49.560;8.244;2023-03-13T08:18:48;1.30;;;1.20;;
16294;SDS011;8255;49.560;8.244;2023-03-13T08:21:16;1.30;;;1.20;;
16294;SDS011;8255;49.560;8.244;2023-03-13T08:23:43;1.40;;;1.30;;
16294;SDS011;8255;49.560;8.244;2023-03-13T08:26:10;1.33;;;1.13;;
16294;SDS011;8255;49.560;8.244;2023-03-13T08:28:37;1.83;;;1.30;;
16294;SDS011;8255;49.560;8.244;2023-03-13T08:31:07;1.33;;;1.23;;
16294;SDS011;8255;49.560;8.244;2023-03-13T08:33:35;1.48;;;1.10;;
16294;SDS011;8255;49.560;8.244;2023-03-13T08:36:09;1.50;;;1.40;;
16294;SDS011;8255;49.560;8.244;2023-03-13T08:38:36;1.65;;;1.40;;
16294;SDS011;8255;49.560;8.244;2023-03-13T08:41:02;1.85;;;1.75;;
16294;SDS011;8255;49.560;8.244;2023-03-13T08:43:29;3.50;;;3.20;;
16294;SDS011;8255;49.560;8.244;2023-03-13T08:45:55;2.00;;;1.60;;
16294;SDS011;8255;49.560;8.244;2023-03-13T08:48:21;1.30;;;1.20;;
16294;SDS011;8255;49.560;8.244;2023-03-13T08:50:58;1.48;;;1.38;;
16294;SDS011;8255;49.560;8.244;2023-03-13T08:53:24;1.52;;;1.42;;
16294;SDS011;8255;49.560;8.244;2023-03-13T08:55:51;1.40;;;1.40;;
16294;SDS011;8255;49.560;8.244;2023-03-13T08:58:17;1.98;;;1.30;;
16294;SDS011;8255;49.560;8.244;2023-03-13T09:00:44;1.40;;;1.35;;
16294;SDS011;8255;49.560;8.244;2023-03-13T09:03:10;1.48;;;1.38;;
16294;SDS011;8255;49.560;8.244;2023-03-13T09:05:36;1.75;;;1.20;;
16294;SDS011;8255;49.560;8.244;2023-03-13T09:08:04;1.10;;;1.10;;
16294;SDS011;8255;49.560;8.244;2023-03-13T09:10:31;4.40;;;1.60;;
16294;SDS011;8255;49.560;8.244;2023-03-13T09:12:58;4.28;;;2.17;;
16294;SDS011;8255;49.560;8.244;2023-03-13T09:15:24;8.00;;;2.10;;
16294;SDS011;8255;49.560;8.244;2023-03-13T09:17:50;2.83;;;1.55;;
16294;SDS011;8255;49.560;8.244;2023-03-13T09:20:16;4.50;;;1.92;;
16294;SDS011;8255;49.560;8.244;2023-03-13T09:22:43;5.35;;;1.90;;
16294;SDS011;8255;49.560;8.244;2023-03-13T09:25:11;1.80;;;1.70;;
16294;SDS011;8255;49.560;8.244;2023-03-13T09:27:37;2.28;;;1.40;;
16294;SDS011;8255;49.560;8.244;2023-03-13T09:30:04;1.40;;;1.40;;
16294;SDS011;8255;49.560;8.244;2023-03-13T09:32:31;3.60;;;1.48;;
16294;SDS011;8255;49.560;8.244;2023-03-13T09:34:58;2.28;;;1.65;;
16294;SDS011;8255;49.560;8.244;2023-03-13T09:37:24;2.17;;;1.70;;
16294;SDS011;8255;49.560;8.244;2023-03-13T09:39:50;2.78;;;1.60;;
16294;SDS011;8255;49.560;8.244;2023-03-13T09:42:19;3.08;;;1.80;;
16294;SDS011;8255;49.560;8.244;2023-03-13T09:44:47;2.13;;;1.63;;
16294;SDS011;8255;49.560;8.244;2023-03-13T09:47:17;1.45;;;1.35;;
16294;SDS011;8255;49.560;8.244;2023-03-13T09:49:46;1.88;;;1.67;;
16294;SDS011;8255;49.560;8.244;2023-03-13T09:52:14;2.17;;;1.77;;
16294;SDS011;8255;49.560;8.244;2023-03-13T09:54:42;1.77;;;1.67;;
16294;SDS011;8255;49.560;8.244;2023-03-13T09:57:12;1.75;;;1.58;;
16294;SDS011;8255;49.560;8.244;2023-03-13T09:59:42;1.67;;;1.45;;
16294;SDS011;8255;49.560;8.244;2023-03-13T10:02:15;1.80;;;1.70;;
16294;SDS011;8255;49.560;8.244;2023-03-13T10:04:42;1.88;;;1.73;;
16294;SDS011;8255;49.560;8.244;2023-03-13T10:07:09;1.65;;;1.60;;
16294;SDS011;8255;49.560;8.244;2023-03-13T10:09:36;1.85;;;1.60;;
16294;SDS011;8255;49.560;8.244;2023-03-13T10:12:05;1.67;;;1.58;;
16294;SDS011;8255;49.560;8.244;2023-03-13T10:14:36;1.30;;;1.30;;
16294;SDS011;8255;49.560;8.244;2023-03-13T10:17:06;2.13;;;1.60;;
16294;SDS011;8255;49.560;8.244;2023-03-13T10:19:35;1.90;;;1.80;;
16294;SDS011;8255;49.560;8.244;2023-03-13T10:22:03;3.03;;;1.67;;
16294;SDS011;8255;49.560;8.244;2023-03-13T10:24:35;1.92;;;1.77;;
16294;SDS011;8255;49.560;8.244;2023-03-13T10:27:02;1.55;;;1.52;;
16294;SDS011;8255;49.560;8.244;2023-03-13T10:29:29;3.33;;;2.05;;
16294;SDS011;8255;49.560;8.244;2023-03-13T10:31:56;1.77;;;1.67;;
16294;SDS011;8255;49.560;8.244;2023-03-13T10:34:24;1.75;;;1.55;;
16294;SDS011;8255;49.560;8.244;2023-03-13T10:36:56;4.97;;;1.90;;
16294;SDS011;8255;49.560;8.244;2023-03-13T10:39:23;1.73;;;1.63;;
16294;SDS011;8255;49.560;8.244;2023-03-13T10:41:50;1.70;;;1.60;;
16294;SDS011;8255;49.560;8.244;2023-03-13T10:44:21;1.40;;;1.30;;
16294;SDS011;8255;49.560;8.244;2023-03-13T10:46:48;2.28;;;1.80;;
16294;SDS011;8255;49.560;8.244;2023-03-13T10:49:16;1.50;;;1.40;;
16294;SDS011;8255;49.560;8.244;2023-03-13T10:51:45;3.63;;;1.50;;
16294;SDS011;8255;49.560;8.244;2023-03-13T10:54:13;1.80;;;1.70;;
16294;SDS011;8255;49.560;8.244;2023-03-13T10:56:40;1.33;;;1.23;;
16294;SDS011;8255;49.560;8.244;2023-03-13T10:59:15;3.40;;;2.00;;
16294;SDS011;8255;49.560;8.244;2023-03-13T11:01:45;4.10;;;1.80;;
16294;SDS011;8255;49.560;8.244;2023-03-13T11:04:19;2.17;;;1.70;;
16294;SDS011;8255;49.560;8.244;2023-03-13T11:06:50;1.60;;;1.50;;
16294;SDS011;8255;49.560;8.244;2023-03-13T11:09:17;3.60;;;1.50;;
16294;SDS011;8255;49.560;8.244;2023-03-13T11:11:45;1.70;;;1.60;;
16294;SDS011;8255;49.560;8.244;2023-03-13T11:14:13;1.60;;;1.50;;
16294;SDS011;8255;49.560;8.244;2023-03-13T11:16:41;1.95;;;1.60;;
16294;SDS011;8255;49.560;8.244;2023-03-13T11:19:24;3.72;;;1.75;;
16294;SDS011;8255;49.560;8.244;2023-03-13T11:21:57;1.50;;;1.40;;
16294;SDS011;8255;49.560;8.244;2023-03-13T11:24:27;1.92;;;1.50;;
16294;SDS011;8255;49.560;8.244;2023-03-13T11:26:57;1.85;;;1.70;;
16294;SDS011;8255;49.560;8.244;2023-03-13T11:29:25;2.63;;;1.65;;
16294;SDS011;8255;49.560;8.244;2023-03-13T11:31:55;1.75;;;1.65;;
16294;SDS011;8255;49.560;8.244;2023-03-13T11:34:23;3.30;;;1.40;;
16294;SDS011;8255;49.560;8.244;2023-03-13T11:36:52;1.98;;;1.60;;
16294;SDS011;8255;49.560;8.244;2023-03-13T11:39:36;1.65;;;1.50;;
16294;SDS011;8255;49.560;8.244;2023-03-13T11:42:06;2.38;;;1.50;;
16294;SDS011;8255;49.560;8.244;2023-03-13T11:44:40;1.35;;;1.35;;
16294;SDS011;8255;49.560;8.244;2023-03-13T11:50:05;2.72;;;1.50;;
16294;SDS011;8255;49.560;8.244;2023-03-13T11:52:37;2.20;;;1.77;;
16294;SDS011;8255;49.560;8.244;2023-03-13T11:55:13;1.20;;;1.17;;
16294;SDS011;8255;49.560;8.244;2023-03-13T11:57:43;1.23;;;1.15;;
16294;SDS011;8255;49.560;8.244;2023-03-13T12:00:15;1.70;;;1.55;;
16294;SDS011;8255;49.560;8.244;2023-03-13T12:02:43;1.45;;;1.35;;
16294;SDS011;8255;49.560;8.244;2023-03-13T12:05:13;1.20;;;1.20;;
16294;SDS011;8255;49.560;8.244;2023-03-13T12:07:41;3.95;;;1.85;;
16294;SDS011;8255;49.560;8.244;2023-03-13T12:10:13;1.17;;;1.17;;
16294;SDS011;8255;49.560;8.244;2023-03-13T12:12:41;1.63;;;1.52;;
16294;SDS011;8255;49.560;8.244;2023-03-13T12:15:15;2.03;;;1.30;;
16294;SDS011;8255;49.560;8.244;2023-03-13T12:17:44;2.63;;;1.48;;
16294;SDS011;8255;49.560;8.244;2023-03-13T12:20:12;1.50;;;1.40;;
16294;SDS011;8255;49.560;8.244;2023-03-13T12:22:41;1.73;;;1.40;;
16294;SDS011;8255;49.560;8.244;2023-03-13T12:25:11;1.90;;;1.60;;
16294;SDS011;8255;49.560;8.244;2023-03-13T12:27:41;1.70;;;1.33;;
16294;SDS011;8255;49.560;8.244;2023-03-13T12:30:13;1.25;;;1.20;;
16294;SDS011;8255;49.560;8.244;2023-03-13T12:32:54;1.30;;;1.25;;
16294;SDS011;8255;49.560;8.244;2023-03-13T12:35:25;1.55;;;1.50;;
16294;SDS011;8255;49.560;8.244;2023-03-13T12:37:53;1.92;;;1.30;;
16294;SDS011;8255;49.560;8.244;2023-03-13T12:40:22;1.85;;;1.15;;
16294;SDS011;8255;49.560;8.244;2023-03-13T12:42:50;1.10;;;1.08;;
16294;SDS011;8255;49.560;8.244;2023-03-13T12:45:20;1.17;;;1.17;;
16294;SDS011;8255;49.560;8.244;2023-03-13T12:50:41;1.30;;;1.30;;
16294;SDS011;8255;49.560;8.244;2023-03-13T12:56:20;1.40;;;1.33;;
16294;SDS011;8255;49.560;8.244;2023-03-13T12:58:53;1.20;;;1.20;;
16294;SDS011;8255;49.560;8.244;2023-03-13T13:01:26;1.40;;;1.20;;
16294;SDS011;8255;49.560;8.244;2023-03-13T13:03:54;1.35;;;1.25;;
16294;SDS011;8255;49.560;8.244;2023-03-13T13:06:22;1.45;;;1.35;;
16294;SDS011;8255;49.560;8.244;2023-03-13T13:09:00;1.23;;;1.23;;
16294;SDS011;8255;49.560;8.244;2023-03-13T13:17:21;1.50;;;1.35;;
16294;SDS011;8255;49.560;8.244;2023-03-13T13:19:49;1.25;;;1.15;;
16294;SDS011;8255;49.560;8.244;2023-03-13T13:22:44;1.25;;;1.20;;
16294;SDS011;8255;49.560;8.244;2023-03-13T13:25:25;3.20;;;1.25;;
16294;SDS011;8255;49.560;8.244;2023-03-13T13:27:51;0.93;;;0.90;;
16294;SDS011;8255;49.560;8.244;2023-03-13T13:30:28;1.40;;;1.30;;
16294;SDS011;8255;49.560;8.244;2023-03-13T13:32:57;1.38;;;1.25;;
16294;SDS011;8255;49.560;8.244;2023-03-13T13:35:43;1.25;;;1.20;;
16294;SDS011;8255;49.560;8.244;2023-03-13T13:38:27;1.20;;;1.20;;
16294;SDS011;8255;49.560;8.244;2023-03-13T13:41:01;1.60;;;1.50;;
16294;SDS011;8255;49.560;8.244;2023-03-13T13:43:29;1.17;;;1.10;;
16294;SDS011;8255;49.560;8.244;2023-03-13T13:45:56;1.30;;;1.30;;
16294;SDS011;8255;49.560;8.244;2023-03-13T13:48:26;1.40;;;1.30;;
16294;SDS011;8255;49.560;8.244;2023-03-13T13:53:44;1.33;;;1.33;;
16294;SDS011;8255;49.560;8.244;2023-03-13T13:58:53;2.28;;;2.08;;
16294;SDS011;8255;49.560;8.244;2023-03-13T14:01:21;1.60;;;1.45;;
16294;SDS011;8255;49.560;8.244;2023-03-13T14:03:49;1.45;;;1.35;;
16294;SDS011;8255;49.560;8.244;2023-03-13T14:06:16;1.20;;;1.20;;
16294;SDS011;8255;49.560;8.244;2023-03-13T14:08:44;1.52;;;1.42;;
16294;SDS011;8255;49.560;8.244;2023-03-13T14:11:18;1.90;;;1.20;;
16294;SDS011;8255;49.560;8.244;2023-03-13T14:13:52;1.30;;;1.20;;
16294;SDS011;8255;49.560;8.244;2023-03-13T14:16:34;4.57;;;4.28;;
16294;SDS011;8255;49.560;8.244;2023-03-13T14:19:03;1.50;;;1.40;;
16294;SDS011;8255;49.560;8.244;2023-03-13T14:21:29;2.38;;;1.20;;
16294;SDS011;8255;49.560;8.244;2023-03-13T14:23:57;1.95;;;1.17;;
16294;SDS011;8255;49.560;8.244;2023-03-13T14:26:24;1.48;;;1.33;;
16294;SDS011;8255;49.560;8.244;2023-03-13T14:28:52;1.17;;;1.08;;
16294;SDS011;8255;49.560;8.244;2023-03-13T14:31:22;1.15;;;1.15;;
16294;SDS011;8255;49.560;8.244;2023-03-13T14:33:49;1.40;;;1.30;;
16294;SDS011;8255;49.560;8.244;2023-03-13T14:36:16;2.88;;;1.35;;
16294;SDS011;8255;49.560;8.244;2023-03-13T14:38:50;1.20;;;1.20;;
16294;SDS011;8255;49.560;8.244;2023-03-13T14:41:21;1.20;;;1.10;;
16294;SDS011;8255;49.560;8.244;2023-03-13T14:43:48;1.00;;;1.00;;
16294;SDS011;8255;49.560;8.244;2023-03-13T14:46:15;2.13;;;1.13;;
16294;SDS011;8255;49.560;8.244;2023-03-13T14:48:46;1.10;;;1.10;;
16294;SDS011;8255;49.560;8.244;2023-03-13T14:51:18;1.40;;;1.30;;
16294;SDS011;8255;49.560;8.244;2023-03-13T14:53:52;3.22;;;1.10;;
16294;SDS011;8255;49.560;8.244;2023-03-13T14:56:18;0.90;;;0.90;;
16294;SDS011;8255;49.560;8.244;2023-03-13T14:58:45;1.63;;;1.10;;
16294;SDS011;8255;49.560;8.244;2023-03-13T15:01:13;2.38;;;1.50;;
16294;SDS011;8255;49.560;8.244;2023-03-13T15:03:46;1.40;;;1.30;;
16294;SDS011;8255;49.560;8.244;2023-03-13T15:06:18;2.25;;;1.20;;
16294;SDS011;8255;49.560;8.244;2023-03-13T15:08:45;0.90;;;0.90;;
16294;SDS011;8255;49.560;8.244;2023-03-13T15:11:16;3.53;;;1.40;;
16294;SDS011;8255;49.560;8.244;2023-03-13T15:13:42;1.35;;;1.20;;
16294;SDS011;8255;49.560;8.244;2023-03-13T15:16:12;1.58;;;1.23;;
16294;SDS011;8255;49.560;8.244;2023-03-13T15:18:39;1.27;;;1.15;;
16294;SDS011;8255;49.560;8.244;2023-03-13T15:21:18;1.20;;;1.20;;
16294;SDS011;8255;49.560;8.244;2023-03-13T15:23:47;1.60;;;1.00;;
16294;SDS011;8255;49.560;8.244;2023-03-13T15:26:14;1.55;;;1.55;;
16294;SDS011;8255;49.560;8.244;2023-03-13T15:28:41;2.63;;;2.42;;
16294;SDS011;8255;49.560;8.244;2023-03-13T15:31:08;1.60;;;1.60;;
16294;SDS011;8255;49.560;8.244;2023-03-13T15:33:35;1.70;;;1.20;;
16294;SDS011;8255;49.560;8.244;2023-03-13T15:36:02;1.48;;;0.70;;
16294;SDS011;8255;49.560;8.244;2023-03-13T15:38:30;0.60;;;0.60;;